Time;durP1;ratioP1;P1;durP2;ratioP2;P2;SDS_P1;SDS_P2;PMS_P1;PMS_P2;Temp;Humidity;BMP_temperature;BMP_pressure;BME280_temperature;BME280_humidity;BME280_pressure;Samples;Min_cycle;Max_cycle;Signal;HPM_P1;HPM_P2
2022/01/17 00:02:20;;;;;;;46.80;24.60;;;2.90;99.90;;;;;;5052199;28;20029;-76
2022/01/17 00:04:47;;;;;;;42.28;22.73;;;3.00;99.90;;;;;;5049954;28;20409;-75
2022/01/17 00:07:13;;;;;;;44.30;22.17;;;3.00;99.90;;;;;;5052190;28;20034;-76
2022/01/17 00:09:39;;;;;;;47.55;21.90;;;2.90;99.90;;;;;;5051108;28;20028;-75
2022/01/17 00:12:05;;;;;;;37.30;20.33;;;2.80;99.90;;;;;;5051694;28;20033;-75
2022/01/17 00:14:35;;;;;;;39.80;19.75;;;2.90;99.90;;;;;;5051952;28;20480;-76
2022/01/17 00:19:43;;;;;;;40.60;20.85;;;2.90;99.90;;;;;;5051652;28;20393;-75
2022/01/17 00:22:14;;;;;;;37.72;18.13;;;2.90;99.90;;;;;;5052064;28;20029;-76
2022/01/17 00:24:41;;;;;;;43.33;20.75;;;2.90;99.90;;;;;;5051574;28;20041;-72
2022/01/17 00:27:08;;;;;;;40.35;19.83;;;2.90;99.90;;;;;;5042100;28;20108;-75
2022/01/17 00:29:34;;;;;;;42.30;19.98;;;2.90;99.90;;;;;;5051234;28;20134;-74
2022/01/17 00:32:01;;;;;;;40.80;20.17;;;2.90;99.90;;;;;;5051881;28;20108;-75
2022/01/17 00:34:27;;;;;;;42.63;21.05;;;4.20;99.90;;;;;;5051868;28;20029;-75
2022/01/17 00:36:53;;;;;;;40.90;21.15;;;2.80;99.90;;;;;;5051376;28;20025;-75
2022/01/17 00:39:19;;;;;;;41.83;20.13;;;2.80;99.90;;;;;;5051213;28;20066;-76
2022/01/17 00:41:44;;;;;;;45.47;22.52;;;2.80;99.90;;;;;;5051757;28;20438;-75
2022/01/17 00:44:10;;;;;;;42.88;21.38;;;3.30;99.90;;;;;;5051536;28;20115;-75
2022/01/17 00:46:36;;;;;;;53.22;23.15;;;2.80;99.90;;;;;;5051338;28;20400;-75
2022/01/17 00:49:02;;;;;;;35.60;16.27;;;2.90;99.90;;;;;;5051132;28;20100;-75
2022/01/17 00:51:28;;;;;;;40.90;18.77;;;2.70;99.90;;;;;;5051612;28;20497;-74
2022/01/17 00:53:54;;;;;;;44.85;20.55;;;2.80;99.90;;;;;;5051490;28;20032;-75
2022/01/17 00:56:22;;;;;;;41.78;19.95;;;3.50;99.90;;;;;;5051051;28;20041;-76
2022/01/17 00:58:48;;;;;;;42.25;19.08;;;2.70;99.90;;;;;;5050943;28;20025;-75
2022/01/17 01:01:14;;;;;;;45.13;21.20;;;2.80;99.90;;;;;;5051361;28;20029;-75
2022/01/17 01:03:40;;;;;;;49.78;21.60;;;2.70;99.90;;;;;;5051671;28;20025;-76
2022/01/17 01:06:05;;;;;;;46.80;21.98;;;5.00;99.90;;;;;;5049422;28;20037;-75
2022/01/17 01:08:31;;;;;;;43.25;20.73;;;2.80;99.90;;;;;;5051049;28;20470;-75
2022/01/17 01:10:57;;;;;;;46.55;21.88;;;2.60;99.90;;;;;;5051041;28;20409;-74
2022/01/17 01:13:24;;;;;;;48.60;22.00;;;2.40;99.90;;;;;;5051446;28;20104;-75
2022/01/17 01:29:30;;;;;;;41.58;21.17;;;2.70;99.90;;;;;;5054815;28;20067;-75
2022/01/17 01:32:06;;;;;;;43.92;21.80;;;3.20;99.90;;;;;;5053981;28;20450;-75
2022/01/17 01:34:36;;;;;;;41.90;22.40;;;2.60;99.90;;;;;;5054891;28;20385;-75
2022/01/17 01:37:03;;;;;;;51.80;24.10;;;2.80;99.90;;;;;;5055134;28;20021;-76
2022/01/17 01:39:29;;;;;;;51.35;23.83;;;2.40;99.90;;;;;;5054511;28;20424;-76
2022/01/17 01:41:55;;;;;;;52.28;24.88;;;2.40;99.90;;;;;;5054510;28;20473;-75
2022/01/17 01:44:22;;;;;;;52.78;26.00;;;2.40;99.90;;;;;;5053052;28;20067;-76
2022/01/17 01:46:50;;;;;;;44.22;21.70;;;2.50;99.90;;;;;;5043217;28;20028;-75
2022/01/17 01:49:16;;;;;;;47.22;23.33;;;3.70;99.90;;;;;;5054100;28;20032;-76
2022/01/17 01:51:43;;;;;;;38.65;21.33;;;2.40;99.90;;;;;;5054566;28;20497;-76
2022/01/17 01:54:09;;;;;;;47.42;23.63;;;2.50;99.90;;;;;;5054204;28;20505;-76
2022/01/17 01:56:40;;;;;;;44.65;22.30;;;2.60;99.90;;;;;;5054188;28;20060;-75
2022/01/17 01:59:06;;;;;;;43.08;21.48;;;2.50;99.90;;;;;;5052688;28;20025;-76
2022/01/17 02:01:33;;;;;;;42.13;22.13;;;4.20;99.90;;;;;;5054402;28;20110;-76
2022/01/17 02:03:59;;;;;;;42.03;21.75;;;2.60;99.90;;;;;;5054549;28;20051;-74
2022/01/17 02:06:24;;;;;;;37.83;19.77;;;2.50;99.90;;;;;;5053642;28;20036;-76
2022/01/17 02:08:50;;;;;;;37.80;19.60;;;2.60;99.90;;;;;;5052615;28;20025;-76
2022/01/17 02:11:16;;;;;;;42.20;22.08;;;2.50;99.90;;;;;;5054187;28;20037;-76
2022/01/17 02:13:42;;;;;;;40.40;19.17;;;2.50;99.90;;;;;;5054325;28;20021;-76
2022/01/17 02:16:11;;;;;;;33.83;18.58;;;2.60;99.90;;;;;;5053308;28;20039;-74
2022/01/17 02:18:37;;;;;;;35.55;18.00;;;2.60;99.90;;;;;;5053145;28;20055;-75
2022/01/17 02:21:18;;;;;;;37.05;18.02;;;2.60;99.90;;;;;;5054310;28;20053;-74
2022/01/17 02:23:51;;;;;;;36.60;17.23;;;2.60;99.90;;;;;;5054296;28;20477;-74
2022/01/17 02:26:17;;;;;;;35.75;19.33;;;2.70;99.90;;;;;;5053400;28;20033;-74
2022/01/17 02:28:49;;;;;;;34.85;18.23;;;2.60;99.90;;;;;;5053569;28;20021;-74
2022/01/17 02:31:15;;;;;;;34.50;17.27;;;2.60;99.90;;;;;;5053927;28;20619;-74
2022/01/17 02:33:40;;;;;;;34.20;17.52;;;2.70;99.90;;;;;;5053540;28;20022;-74
2022/01/17 02:36:06;;;;;;;32.28;17.60;;;2.70;99.90;;;;;;5041954;28;20105;-74
2022/01/17 02:38:32;;;;;;;32.65;17.40;;;3.80;99.90;;;;;;5033477;28;20429;-73
2022/01/17 02:40:58;;;;;;;26.70;14.63;;;2.70;99.90;;;;;;5048772;28;20068;-74
2022/01/17 02:43:24;;;;;;;35.30;17.45;;;2.60;99.90;;;;;;5053725;28;20052;-74
2022/01/17 02:48:24;;;;;;;29.15;16.90;;;3.00;99.90;;;;;;5053750;28;20025;-74
2022/01/17 02:50:50;;;;;;;32.45;17.58;;;2.80;99.90;;;;;;5053412;28;20037;-74
2022/01/17 02:53:16;;;;;;;32.88;18.45;;;2.70;99.90;;;;;;5053592;28;20033;-75
2022/01/17 02:55:49;;;;;;;31.65;16.92;;;2.70;99.90;;;;;;5053105;28;20033;-74
2022/01/17 02:58:16;;;;;;;33.47;18.48;;;4.10;99.90;;;;;;5053615;28;20071;-74
2022/01/17 03:00:42;;;;;;;34.03;18.65;;;2.60;99.90;;;;;;5053220;28;20025;-73
2022/01/17 03:03:13;;;;;;;33.88;17.88;;;2.70;99.90;;;;;;5053591;28;20079;-74
2022/01/17 03:05:40;;;;;;;34.35;18.30;;;3.50;99.90;;;;;;5052781;28;20071;-74
2022/01/17 03:08:05;;;;;;;33.13;17.00;;;2.60;99.90;;;;;;5041644;28;20026;-74
2022/01/17 03:13:13;;;;;;;30.98;17.27;;;2.60;99.90;;;;;;5033338;28;20044;-74
2022/01/17 03:15:39;;;;;;;32.78;16.40;;;2.60;99.90;;;;;;5038547;28;20044;-73
2022/01/17 03:18:05;;;;;;;32.97;16.65;;;2.70;99.90;;;;;;5052991;28;20389;-75
2022/01/17 03:20:32;;;;;;;32.08;16.98;;;2.80;99.90;;;;;;5052789;28;20025;-74
2022/01/17 03:22:58;;;;;;;28.63;15.10;;;2.60;99.90;;;;;;5054816;28;20029;-74
2022/01/17 03:25:23;;;;;;;27.55;14.30;;;2.60;99.90;;;;;;5053952;28;20025;-74
2022/01/17 03:27:49;;;;;;;30.70;15.98;;;2.90;99.90;;;;;;5054358;28;20031;-74
2022/01/17 03:30:15;;;;;;;32.10;15.68;;;2.60;99.90;;;;;;5052206;28;20036;-73
2022/01/17 03:32:41;;;;;;;29.45;15.05;;;3.70;99.90;;;;;;5052902;28;20024;-74
2022/01/17 03:35:07;;;;;;;29.63;15.73;;;2.40;99.90;;;;;;5052445;28;20033;-74
2022/01/17 03:37:33;;;;;;;28.08;15.18;;;2.60;99.90;;;;;;5052870;28;20028;-73
2022/01/17 03:39:58;;;;;;;27.15;14.63;;;2.60;99.90;;;;;;5051847;28;20021;-74
2022/01/17 03:42:24;;;;;;;27.95;15.23;;;2.70;99.90;;;;;;5052650;28;20029;-74
2022/01/17 03:44:50;;;;;;;27.20;15.32;;;2.60;99.90;;;;;;5052377;28;20024;-74
2022/01/17 03:47:16;;;;;;;26.80;14.00;;;2.70;99.90;;;;;;5052261;28;20405;-74
2022/01/17 03:49:42;;;;;;;30.52;15.18;;;2.70;99.90;;;;;;5050617;28;20441;-74
2022/01/17 03:52:08;;;;;;;23.35;14.30;;;3.60;99.90;;;;;;5052638;28;20021;-75
2022/01/17 03:54:34;;;;;;;25.73;14.10;;;2.70;99.90;;;;;;5052380;28;20051;-73
2022/01/17 03:57:00;;;;;;;29.35;13.45;;;2.70;99.90;;;;;;5052405;28;20040;-73
2022/01/17 03:59:26;;;;;;;27.95;13.98;;;2.70;99.90;;;;;;5052216;28;20040;-74
2022/01/17 04:01:51;;;;;;;24.92;13.80;;;2.80;99.90;;;;;;5052561;28;20036;-74
2022/01/17 04:04:17;;;;;;;26.73;13.90;;;2.60;99.90;;;;;;5052015;28;20044;-74
2022/01/17 04:06:43;;;;;;;26.60;13.63;;;2.70;99.90;;;;;;5052222;28;20381;-74
2022/01/17 04:09:09;;;;;;;28.25;13.35;;;2.80;99.90;;;;;;5051700;28;20024;-75
2022/01/17 04:11:35;;;;;;;23.80;12.63;;;4.30;99.90;;;;;;5050651;28;20513;-74
2022/01/17 04:14:00;;;;;;;23.15;12.82;;;2.80;99.90;;;;;;5052224;28;20031;-74
2022/01/17 04:16:26;;;;;;;25.85;13.98;;;2.70;99.90;;;;;;5052043;28;20080;-74
2022/01/17 04:18:54;;;;;;;23.63;12.30;;;2.70;99.90;;;;;;5051398;28;20425;-74
2022/01/17 04:21:19;;;;;;;22.27;10.85;;;2.70;99.90;;;;;;5051823;28;20489;-73
2022/01/17 04:23:45;;;;;;;25.08;13.25;;;2.70;99.90;;;;;;5051995;28;20075;-74
2022/01/17 04:26:11;;;;;;;24.23;13.40;;;5.30;99.90;;;;;;5050273;28;20076;-74
2022/01/17 04:28:36;;;;;;;20.70;12.20;;;2.80;99.90;;;;;;5051476;28;20033;-74
2022/01/17 04:31:02;;;;;;;18.33;9.77;;;2.80;99.90;;;;;;5051689;28;20485;-74
2022/01/17 04:33:28;;;;;;;22.00;12.32;;;2.90;99.90;;;;;;5051841;28;20073;-74
2022/01/17 04:35:53;;;;;;;25.17;13.02;;;2.70;99.90;;;;;;5042090;28;20025;-75
2022/01/17 04:38:20;;;;;;;21.77;12.20;;;2.90;99.90;;;;;;5031821;28;20025;-74
2022/01/17 04:40:51;;;;;;;26.45;13.35;;;2.90;99.90;;;;;;5031170;28;20456;-74
2022/01/17 04:43:54;;;;;;;24.02;13.68;;;2.90;99.90;;;;;;5032100;28;20025;-74
2022/01/17 04:46:08;;;;;;;22.85;12.40;;;3.00;99.90;;;;;;5051342;28;20037;-74
2022/01/17 04:48:36;;;;;;;21.08;12.95;;;3.00;99.90;;;;;;5051185;28;20029;-74
2022/01/17 04:51:02;;;;;;;22.88;13.00;;;4.40;99.90;;;;;;5050428;28;20110;-74
2022/01/17 04:53:28;;;;;;;22.40;12.55;;;3.00;99.90;;;;;;5050551;28;20044;-74
2022/01/17 04:55:55;;;;;;;26.27;13.90;;;3.20;99.90;;;;;;5050960;28;20079;-74
2022/01/17 04:58:21;;;;;;;23.48;11.70;;;5.00;99.90;;;;;;5053665;28;20389;-74
2022/01/17 05:00:47;;;;;;;25.92;14.15;;;3.00;99.90;;;;;;5055799;28;20032;-74
2022/01/17 05:03:18;;;;;;;24.00;13.02;;;2.90;99.90;;;;;;5055856;28;20453;-74
2022/01/17 05:05:45;;;;;;;22.13;13.02;;;2.80;99.90;;;;;;5047251;28;20506;-75
2022/01/17 05:08:11;;;;;;;21.55;12.00;;;3.30;99.90;;;;;;5035943;28;20038;-75
2022/01/17 05:10:37;;;;;;;23.83;12.27;;;3.00;99.90;;;;;;5048341;28;20048;-74
2022/01/17 05:13:03;;;;;;;24.17;13.07;;;3.00;99.90;;;;;;5055519;28;20017;-74
2022/01/17 05:15:33;;;;;;;24.48;12.35;;;2.90;99.90;;;;;;5055130;28;20032;-74
2022/01/17 05:18:13;;;;;;;22.98;12.43;;;3.10;99.90;;;;;;5054192;28;20075;-74
2022/01/17 05:20:40;;;;;;;24.92;13.32;;;3.60;99.90;;;;;;5053477;28;20544;-74
2022/01/17 05:23:06;;;;;;;24.38;12.82;;;2.90;99.90;;;;;;5055543;28;20036;-74
2022/01/17 05:25:32;;;;;;;23.70;14.00;;;3.00;99.90;;;;;;5054759;28;20060;-74
2022/01/17 05:27:58;;;;;;;26.58;12.98;;;2.90;99.90;;;;;;5055313;28;20040;-74
2022/01/17 05:30:25;;;;;;;24.55;13.43;;;2.90;99.90;;;;;;5054606;28;20021;-74
2022/01/17 05:32:51;;;;;;;22.60;12.68;;;3.00;99.90;;;;;;5055279;28;20021;-74
2022/01/17 05:35:18;;;;;;;23.77;12.57;;;3.30;99.90;;;;;;5054930;28;20397;-74
2022/01/17 05:37:45;;;;;;;19.90;11.18;;;3.00;99.90;;;;;;5053290;28;20596;-74
2022/01/17 05:40:12;;;;;;;22.75;13.13;;;3.00;99.90;;;;;;5055253;28;20049;-74
2022/01/17 05:42:39;;;;;;;25.23;13.25;;;3.00;99.90;;;;;;5055263;28;20112;-74
2022/01/17 05:45:07;;;;;;;19.45;11.43;;;2.90;99.90;;;;;;5054022;28;20040;-74
2022/01/17 05:47:33;;;;;;;21.10;11.52;;;3.00;99.90;;;;;;5064666;28;20032;-74
2022/01/17 05:50:01;;;;;;;21.27;12.20;;;3.10;99.90;;;;;;5063207;28;20104;-74
2022/01/17 05:52:27;;;;;;;21.85;11.18;;;3.10;99.90;;;;;;5054834;28;20040;-73
2022/01/17 05:54:52;;;;;;;20.98;12.85;;;3.00;99.90;;;;;;5054318;28;20020;-74
2022/01/17 05:57:18;;;;;;;21.52;11.60;;;3.10;99.90;;;;;;5054692;28;20029;-74
2022/01/17 05:59:44;;;;;;;22.63;12.93;;;3.00;99.90;;;;;;5053628;28;20078;-74
2022/01/17 06:02:10;;;;;;;25.08;13.88;;;3.80;99.90;;;;;;5054682;28;20021;-73
2022/01/17 06:04:36;;;;;;;17.67;10.30;;;3.00;99.90;;;;;;5054419;28;20029;-74
2022/01/17 06:07:03;;;;;;;22.25;12.20;;;5.50;99.90;;;;;;5053234;28;20025;-74
2022/01/17 06:09:28;;;;;;;23.38;12.25;;;3.10;99.90;;;;;;5053360;28;20029;-74
2022/01/17 06:11:54;;;;;;;23.77;13.38;;;3.00;99.90;;;;;;5054053;28;20047;-74
2022/01/17 06:14:21;;;;;;;22.88;13.07;;;3.90;99.90;;;;;;5054004;28;20021;-74
2022/01/17 06:16:47;;;;;;;23.52;13.00;;;4.10;99.90;;;;;;5054278;28;20025;-74
2022/01/17 06:19:13;;;;;;;24.60;14.05;;;3.00;99.90;;;;;;5053859;28;20490;-74
2022/01/17 06:21:39;;;;;;;25.42;13.85;;;5.50;99.90;;;;;;5054360;28;20421;-74
2022/01/17 06:24:06;;;;;;;27.02;13.38;;;4.40;99.90;;;;;;5053995;28;20029;-74
2022/01/17 06:26:36;;;;;;;26.45;13.00;;;2.90;99.90;;;;;;5053903;28;20527;-74
2022/01/17 06:29:03;;;;;;;23.65;13.98;;;3.10;99.90;;;;;;5053508;28;20064;-73
2022/01/17 06:31:29;;;;;;;26.50;13.70;;;2.80;99.90;;;;;;5054062;28;20029;-74
2022/01/17 06:33:54;;;;;;;28.27;15.20;;;3.00;99.90;;;;;;5053835;28;20036;-73
2022/01/17 06:36:20;;;;;;;27.13;14.55;;;3.10;99.90;;;;;;5052273;28;20040;-74
2022/01/17 06:38:45;;;;;;;22.38;12.80;;;3.10;99.90;;;;;;5029736;28;20033;-74
2022/01/17 06:41:11;;;;;;;23.70;12.25;;;3.00;99.90;;;;;;5029693;28;20036;-74
2022/01/17 06:43:37;;;;;;;24.48;13.95;;;3.00;99.90;;;;;;5029621;28;20562;-73
2022/01/17 06:46:02;;;;;;;24.40;13.63;;;3.20;99.90;;;;;;5042802;28;20063;-74
2022/01/17 06:48:28;;;;;;;21.63;12.20;;;3.10;99.90;;;;;;5047418;28;20493;-74
2022/01/17 06:50:54;;;;;;;25.45;14.27;;;3.00;99.90;;;;;;5047376;28;20394;-74
2022/01/17 06:53:19;;;;;;;25.60;14.32;;;3.00;99.90;;;;;;5050095;28;20056;-74
2022/01/17 06:55:45;;;;;;;26.17;14.45;;;3.00;99.90;;;;;;5048456;28;20111;-73
2022/01/17 06:58:11;;;;;;;23.48;13.73;;;3.10;99.90;;;;;;5049289;28;20025;-75
2022/01/17 07:00:36;;;;;;;24.85;14.32;;;4.60;99.90;;;;;;5048917;28;20037;-74
2022/01/17 07:03:02;;;;;;;28.33;15.07;;;3.10;99.90;;;;;;5052428;28;20393;-74
2022/01/17 07:05:27;;;;;;;24.38;14.38;;;3.00;99.90;;;;;;5052533;28;20108;-73
2022/01/17 07:07:53;;;;;;;24.95;14.00;;;3.00;99.90;;;;;;5053306;28;20086;-74
2022/01/17 07:10:19;;;;;;;22.42;12.60;;;3.50;99.90;;;;;;5052673;28;20029;-73
2022/01/17 07:12:45;;;;;;;24.20;12.80;;;2.90;99.90;;;;;;5052817;28;20025;-73
2022/01/17 07:15:10;;;;;;;26.20;14.55;;;2.90;99.90;;;;;;5052505;28;20029;-74
2022/01/17 07:17:36;;;;;;;25.67;14.60;;;2.90;99.90;;;;;;5051728;28;20021;-74
2022/01/17 07:20:03;;;;;;;26.17;14.15;;;3.10;99.90;;;;;;5046668;28;20090;-74
2022/01/17 07:22:30;;;;;;;25.88;13.38;;;2.90;99.90;;;;;;5043895;28;20496;-74
2022/01/17 07:24:56;;;;;;;29.40;15.20;;;3.30;99.90;;;;;;5051454;28;20033;-74
2022/01/17 07:27:24;;;;;;;25.13;13.90;;;2.80;99.90;;;;;;5052805;28;20378;-74
2022/01/17 07:29:50;;;;;;;29.42;15.52;;;2.70;99.90;;;;;;5052183;28;20033;-74
2022/01/17 07:32:16;;;;;;;30.52;15.20;;;2.90;99.90;;;;;;5051072;28;20493;-74
2022/01/17 07:34:42;;;;;;;27.15;15.50;;;3.20;99.90;;;;;;5048786;28;20027;-74
2022/01/17 07:37:07;;;;;;;27.70;15.15;;;2.80;99.90;;;;;;5048377;28;20484;-74
2022/01/17 07:39:36;;;;;;;33.22;16.80;;;3.00;99.90;;;;;;5047872;28;20502;-74
2022/01/17 07:42:02;;;;;;;24.02;13.75;;;3.00;99.90;;;;;;5030058;28;20095;-73
2022/01/17 07:44:30;;;;;;;27.27;14.82;;;2.90;99.90;;;;;;5043799;28;20017;-74
2022/01/17 07:46:58;;;;;;;28.08;15.70;;;2.80;99.90;;;;;;5043136;28;20450;-74
2022/01/17 07:49:25;;;;;;;29.08;15.82;;;3.50;99.90;;;;;;5044165;28;20115;-74
2022/01/17 07:51:58;;;;;;;27.73;15.68;;;2.90;99.90;;;;;;5043441;28;20612;-74
2022/01/17 07:54:29;;;;;;;29.13;15.20;;;3.00;99.90;;;;;;5042967;28;20025;-73
2022/01/17 07:56:56;;;;;;;30.70;17.15;;;4.00;99.90;;;;;;5041604;28;20071;-75
2022/01/17 07:59:22;;;;;;;29.05;16.20;;;3.10;99.90;;;;;;5043193;28;20048;-73
2022/01/17 08:01:47;;;;;;;27.13;13.32;;;3.00;99.90;;;;;;5043564;28;20108;-72
2022/01/17 08:04:13;;;;;;;30.77;16.30;;;2.90;99.90;;;;;;5043395;28;20125;-72
2022/01/17 08:06:40;;;;;;;27.75;15.07;;;4.10;99.90;;;;;;5045213;28;20025;-73
2022/01/17 08:09:11;;;;;;;27.95;15.18;;;3.00;99.90;;;;;;5042707;28;20116;-73
2022/01/17 08:11:37;;;;;;;29.75;16.95;;;3.00;99.90;;;;;;5042811;28;20033;-73
2022/01/17 08:14:03;;;;;;;30.00;16.67;;;2.90;99.90;;;;;;5040886;28;20032;-76
2022/01/17 08:16:28;;;;;;;31.02;16.15;;;2.90;99.90;;;;;;5037811;22;20684;-73
2022/01/17 08:18:54;;;;;;;37.63;18.50;;;3.00;99.90;;;;;;5022401;28;20688;-73
2022/01/17 08:21:20;;;;;;;30.85;15.98;;;2.90;99.90;;;;;;5023966;28;20100;-73
2022/01/17 08:23:46;;;;;;;33.95;17.35;;;3.00;99.90;;;;;;5023221;28;20608;-73
2022/01/17 08:26:11;;;;;;;27.15;14.50;;;3.00;99.90;;;;;;5025728;28;20029;-73
2022/01/17 08:28:37;;;;;;;26.27;13.23;;;3.10;99.90;;;;;;5026205;28;20026;-74
2022/01/17 08:31:03;;;;;;;28.13;16.20;;;3.00;99.90;;;;;;5027171;28;20025;-74
2022/01/17 08:33:28;;;;;;;29.23;17.20;;;3.00;99.90;;;;;;5027296;28;20492;-74
2022/01/17 08:35:54;;;;;;;30.63;16.45;;;3.10;99.90;;;;;;5027709;28;20031;-74
2022/01/17 08:38:20;;;;;;;28.00;14.82;;;3.80;99.90;;;;;;5027243;28;20071;-73
2022/01/17 08:40:47;;;;;;;31.25;16.35;;;3.00;99.90;;;;;;5027698;28;20482;-73
2022/01/17 08:43:12;;;;;;;29.85;16.35;;;3.10;99.90;;;;;;5026930;28;20056;-73
2022/01/17 08:45:38;;;;;;;27.05;16.35;;;5.50;99.90;;;;;;5026760;28;20446;-74
2022/01/17 08:48:05;;;;;;;31.13;17.30;;;3.00;99.90;;;;;;5028115;28;20071;-74
2022/01/17 08:50:30;;;;;;;27.63;16.17;;;2.90;99.90;;;;;;5025401;28;20045;-74
2022/01/17 08:52:56;;;;;;;35.95;17.75;;;4.30;99.90;;;;;;5026692;28;20033;-74
2022/01/17 08:55:22;;;;;;;32.15;17.90;;;3.20;99.90;;;;;;5014325;28;20017;-74
2022/01/17 08:57:48;;;;;;;30.38;16.88;;;3.10;99.90;;;;;;5025738;28;20941;-74
2022/01/17 09:00:16;;;;;;;30.05;16.33;;;3.00;99.90;;;;;;5005808;28;20034;-75
2022/01/17 09:02:42;;;;;;;32.47;17.60;;;3.00;99.90;;;;;;5006968;28;20157;-74
2022/01/17 09:05:08;;;;;;;30.83;18.20;;;3.10;99.90;;;;;;5022211;28;20557;-73
2022/01/17 09:07:34;;;;;;;34.42;18.67;;;3.10;99.90;;;;;;5027961;28;20397;-75
2022/01/17 09:10:00;;;;;;;32.28;17.90;;;2.90;99.90;;;;;;5014433;28;20490;-72
2022/01/17 09:12:25;;;;;;;28.67;15.32;;;3.10;99.90;;;;;;5007260;28;20104;-75
2022/01/17 09:14:51;;;;;;;30.52;16.92;;;3.30;99.90;;;;;;5021519;28;20029;-74
2022/01/17 09:17:17;;;;;;;28.15;16.15;;;3.20;99.90;;;;;;5026749;28;20458;-75
2022/01/17 09:19:43;;;;;;;27.55;16.60;;;3.20;99.90;;;;;;5025724;28;20422;-73
2022/01/17 09:22:09;;;;;;;29.17;16.30;;;3.40;99.90;;;;;;5027591;28;20052;-74
2022/01/17 09:24:37;;;;;;;28.13;15.65;;;3.20;99.90;;;;;;5033769;28;20032;-73
2022/01/17 09:27:05;;;;;;;25.27;14.70;;;3.20;99.90;;;;;;5032141;28;20406;-73
2022/01/17 09:29:31;;;;;;;27.17;15.00;;;3.20;99.90;;;;;;5026858;28;20025;-74
2022/01/17 09:31:57;;;;;;;35.17;16.58;;;3.10;99.90;;;;;;5026780;28;20033;-75
2022/01/17 09:34:23;;;;;;;28.98;16.27;;;4.20;99.90;;;;;;5009056;28;20037;-73
2022/01/17 09:36:49;;;;;;;31.10;17.05;;;3.90;99.90;;;;;;5009397;28;20080;-73
2022/01/17 09:39:15;;;;;;;32.13;17.80;;;3.20;99.90;;;;;;5026031;28;20116;-75
2022/01/17 09:41:41;;;;;;;30.67;17.17;;;4.80;99.90;;;;;;5027091;28;20091;-74
2022/01/17 09:44:09;;;;;;;28.20;16.27;;;3.00;99.90;;;;;;5028031;28;20033;-76
2022/01/17 09:46:41;;;;;;;30.67;16.98;;;3.30;99.90;;;;;;5030704;28;20026;-75
2022/01/17 09:49:35;;;;;;;30.80;17.63;;;3.20;99.90;;;;;;5030245;28;20029;-72
2022/01/17 09:52:13;;;;;;;32.75;16.80;;;3.90;99.90;;;;;;5030148;28;20033;-74
2022/01/17 09:54:45;;;;;;;33.35;17.77;;;3.30;99.90;;;;;;5030179;28;20487;-75
2022/01/17 09:57:13;;;;;;;29.08;17.08;;;3.50;99.90;;;;;;5030375;28;20067;-75
2022/01/17 09:59:40;;;;;;;35.97;17.98;;;3.30;99.90;;;;;;5028323;28;20124;-74
2022/01/17 10:02:07;;;;;;;28.73;16.67;;;3.30;99.90;;;;;;5013639;28;20017;-73
2022/01/17 10:04:34;;;;;;;32.20;15.75;;;3.30;99.90;;;;;;5026660;28;20415;-75
2022/01/17 10:07:01;;;;;;;32.78;17.63;;;4.30;99.90;;;;;;5027537;28;20060;-73
2022/01/17 10:09:28;;;;;;;27.20;16.05;;;3.30;99.90;;;;;;5030201;28;20028;-74
2022/01/17 10:11:59;;;;;;;27.92;17.10;;;3.50;99.90;;;;;;5028033;28;20076;-72
2022/01/17 10:14:27;;;;;;;25.55;13.40;;;4.40;99.90;;;;;;5028601;28;20461;-74
2022/01/17 10:16:53;;;;;;;29.50;17.02;;;3.40;99.90;;;;;;5027802;28;20501;-73
2022/01/17 10:19:21;;;;;;;29.35;15.75;;;3.40;99.90;;;;;;5028089;28;20049;-73
2022/01/17 10:21:51;;;;;;;27.05;14.95;;;3.30;99.90;;;;;;5028313;28;20067;-74
2022/01/17 10:27:18;;;;;;;28.77;17.08;;;3.40;99.90;;;;;;5029716;28;20376;-73
2022/01/17 10:35:21;;;;;;;29.85;15.93;;;3.50;99.90;;;;;;5021389;28;20426;-74
2022/01/17 10:38:02;;;;;;;30.98;16.98;;;3.50;99.90;;;;;;5030371;28;20026;-73
2022/01/17 10:40:34;;;;;;;32.47;16.73;;;3.50;99.90;;;;;;5029022;28;20453;-73
2022/01/17 10:43:01;;;;;;;30.15;16.60;;;3.50;99.90;;;;;;5029996;28;20486;-77
2022/01/17 10:45:33;;;;;;;28.60;17.65;;;3.70;99.90;;;;;;5028999;28;20084;-74
2022/01/17 10:48:00;;;;;;;25.33;13.75;;;3.40;99.90;;;;;;5008241;28;20030;-75
2022/01/17 10:50:32;;;;;;;30.08;16.70;;;3.60;99.90;;;;;;5007423;28;20073;-74
2022/01/17 10:53:04;;;;;;;29.98;16.25;;;4.10;99.90;;;;;;5010028;28;20092;-74
2022/01/17 10:55:41;;;;;;;32.87;16.23;;;5.10;99.90;;;;;;5026594;28;20503;-75
2022/01/17 10:58:13;;;;;;;28.02;16.10;;;3.60;99.90;;;;;;5028258;28;20056;-75
2022/01/17 11:00:45;;;;;;;28.00;16.67;;;3.80;99.90;;;;;;5028595;28;20036;-75
2022/01/17 11:03:16;;;;;;;30.52;17.00;;;3.70;99.90;;;;;;5028973;28;20509;-75
2022/01/17 11:05:49;;;;;;;26.38;15.75;;;3.70;99.90;;;;;;5028629;28;20103;-75
2022/01/17 11:08:20;;;;;;;29.63;17.42;;;4.40;99.90;;;;;;5029070;28;20053;-74
2022/01/17 11:10:53;;;;;;;26.05;16.05;;;4.00;99.90;;;;;;5029079;28;20041;-72
2022/01/17 11:13:20;;;;;;;25.63;14.23;;;3.80;99.90;;;;;;5029087;28;20289;-74
2022/01/17 11:15:54;;;;;;;26.50;13.52;;;3.90;99.90;;;;;;5028408;28;20037;-72
2022/01/17 11:18:24;;;;;;;31.23;16.90;;;4.00;99.90;;;;;;5027725;28;20097;-74
2022/01/17 11:20:53;;;;;;;27.33;15.10;;;3.70;99.90;;;;;;5029045;28;20398;-72
2022/01/17 11:23:22;;;;;;;28.35;16.77;;;3.80;99.90;;;;;;5029286;28;20541;-74
2022/01/17 11:25:52;;;;;;;27.77;16.13;;;4.60;99.90;;;;;;5027874;28;20491;-74
2022/01/17 11:28:22;;;;;;;30.63;16.90;;;4.00;99.90;;;;;;5026766;28;20068;-73
2022/01/17 11:30:49;;;;;;;26.65;15.43;;;3.80;99.90;;;;;;5019581;28;20056;-74
2022/01/17 11:33:14;;;;;;;30.95;17.55;;;3.80;99.90;;;;;;5008963;28;20026;-75
2022/01/17 11:35:42;;;;;;;28.02;16.48;;;5.50;99.90;;;;;;5026432;28;20025;-72
2022/01/17 11:38:14;;;;;;;32.55;17.48;;;3.80;99.90;;;;;;5023563;28;20493;-73
2022/01/17 11:40:41;;;;;;;26.30;14.40;;;3.80;99.90;;;;;;5008133;28;20030;-74
2022/01/17 11:43:20;;;;;;;28.98;16.73;;;3.80;99.90;;;;;;5008143;28;20033;-74
2022/01/17 11:45:46;;;;;;;23.85;14.48;;;3.80;99.90;;;;;;5011778;28;20455;-75
2022/01/17 11:48:25;;;;;;;28.17;16.50;;;3.80;99.90;;;;;;5001679;28;20481;-75
2022/01/17 11:50:52;;;;;;;30.75;17.00;;;4.60;99.90;;;;;;5028090;28;20517;-74
2022/01/17 11:53:19;;;;;;;31.83;18.63;;;3.70;99.90;;;;;;5024348;28;20049;-74
2022/01/17 11:55:47;;;;;;;30.85;16.95;;;4.60;99.90;;;;;;5023186;28;20075;-74
2022/01/17 11:58:25;;;;;;;29.98;16.77;;;4.00;99.90;;;;;;5024607;28;20051;-74
2022/01/17 12:01:00;;;;;;;28.33;16.55;;;3.90;99.90;;;;;;5027534;28;20030;-74
2022/01/17 12:03:45;;;;;;;31.88;18.50;;;3.90;99.90;;;;;;5016889;28;20030;-73
2022/01/17 12:06:26;;;;;;;34.78;18.33;;;3.50;99.90;;;;;;5024678;28;20029;-74
2022/01/17 12:09:20;;;;;;;31.67;17.70;;;3.90;99.90;;;;;;5026956;28;20036;-74
2022/01/17 12:11:53;;;;;;;30.98;16.85;;;4.00;99.90;;;;;;5027560;28;20025;-73
2022/01/17 12:14:21;;;;;;;28.05;15.43;;;4.50;99.90;;;;;;5027616;28;20021;-73
2022/01/17 12:16:47;;;;;;;31.92;16.63;;;4.00;99.90;;;;;;5025385;28;20083;-73
2022/01/17 12:19:13;;;;;;;30.02;16.50;;;3.80;99.90;;;;;;5024405;28;20490;-73
2022/01/17 12:21:47;;;;;;;29.23;15.98;;;4.40;99.90;;;;;;5014966;28;20109;-73
2022/01/17 12:24:34;;;;;;;27.00;14.30;;;3.80;99.90;;;;;;5015411;28;20569;-74
2022/01/17 12:27:06;;;;;;;28.73;16.63;;;4.40;99.90;;;;;;5018647;28;20516;-74
2022/01/17 12:29:52;;;;;;;29.52;16.90;;;3.90;99.90;;;;;;5026903;28;20684;-73
2022/01/17 12:32:25;;;;;;;28.85;15.38;;;3.90;99.90;;;;;;5008092;28;20057;-74
2022/01/17 12:34:53;;;;;;;28.15;15.75;;;6.10;99.90;;;;;;5020133;28;20044;-74
2022/01/17 12:37:31;;;;;;;31.50;16.38;;;4.00;99.90;;;;;;5027011;28;20498;-74
2022/01/17 12:40:16;;;;;;;25.42;14.55;;;4.90;99.90;;;;;;5025301;28;20685;-74
2022/01/17 12:43:00;;;;;;;29.65;15.75;;;4.00;99.90;;;;;;5027145;28;20033;-74
2022/01/17 12:45:32;;;;;;;25.38;15.30;;;4.40;99.90;;;;;;5027783;28;20013;-73
2022/01/17 12:48:00;;;;;;;23.70;14.63;;;4.10;99.90;;;;;;5027248;28;20627;-73
2022/01/17 12:50:28;;;;;;;25.27;14.82;;;4.20;99.90;;;;;;5026150;28;20509;-74
2022/01/17 12:52:56;;;;;;;23.35;13.27;;;4.50;99.90;;;;;;5027227;28;20131;-73
2022/01/17 12:55:24;;;;;;;24.33;13.32;;;4.60;99.90;;;;;;5017155;28;20014;-73
2022/01/17 12:57:50;;;;;;;24.85;14.68;;;4.60;99.90;;;;;;5015402;28;20022;-73
2022/01/17 13:00:22;;;;;;;25.65;14.95;;;4.20;99.90;;;;;;5015140;28;20036;-74
2022/01/17 13:02:53;;;;;;;21.98;13.02;;;4.10;99.90;;;;;;5017467;28;20387;-73
2022/01/17 13:05:27;;;;;;;23.77;13.07;;;5.00;99.90;;;;;;5026130;28;20730;-73
2022/01/17 13:07:53;;;;;;;21.40;13.50;;;4.50;99.90;;;;;;5026456;28;20041;-73
2022/01/17 13:10:20;;;;;;;23.67;14.13;;;4.20;99.90;;;;;;5024910;28;20733;-73